sensor_id;sensor_type;location;lat;lon;timestamp;temperature;humidity
23156;DHT22;11746;50.876;4.246;2023-04-01T00:01:07;9.90;99.90
23156;DHT22;11746;50.876;4.246;2023-04-01T00:03:34;9.80;99.90
23156;DHT22;11746;50.876;4.246;2023-04-01T00:06:00;9.90;99.90
23156;DHT22;11746;50.876;4.246;2023-04-01T00:08:29;9.80;99.90
23156;DHT22;11746;50.876;4.246;2023-04-01T00:10:55;9.80;99.90
23156;DHT22;11746;50.876;4.246;2023-04-01T00:13:22;9.80;99.90
23156;DHT22;11746;50.876;4.246;2023-04-01T00:15:48;9.80;99.90
23156;DHT22;11746;50.876;4.246;2023-04-01T00:18:14;9.80;99.90
23156;DHT22;11746;50.876;4.246;2023-04-01T00:20:47;9.70;99.90
23156;DHT22;11746;50.876;4.246;2023-04-01T00:23:13;9.70;99.90
23156;DHT22;11746;50.876;4.246;2023-04-01T00:25:39;9.80;99.90
23156;DHT22;11746;50.876;4.246;2023-04-01T00:28:05;9.80;99.90
23156;DHT22;11746;50.876;4.246;2023-04-01T00:30:33;9.80;99.90
23156;DHT22;11746;50.876;4.246;2023-04-01T00:33:03;9.80;99.90
23156;DHT22;11746;50.876;4.246;2023-04-01T00:35:29;9.80;99.90
23156;DHT22;11746;50.876;4.246;2023-04-01T00:37:55;9.80;99.90
23156;DHT22;11746;50.876;4.246;2023-04-01T00:42:49;9.70;99.90
23156;DHT22;11746;50.876;4.246;2023-04-01T00:45:26;9.80;99.90
23156;DHT22;11746;50.876;4.246;2023-04-01T00:47:59;9.80;99.90
23156;DHT22;11746;50.876;4.246;2023-04-01T00:50:30;9.80;99.90
23156;DHT22;11746;50.876;4.246;2023-04-01T00:53:02;9.80;99.90
23156;DHT22;11746;50.876;4.246;2023-04-01T00:55:31;9.70;99.90
23156;DHT22;11746;50.876;4.246;2023-04-01T00:57:58;9.70;99.90
23156;DHT22;11746;50.876;4.246;2023-04-01T01:00:30;9.70;99.90
23156;DHT22;11746;50.876;4.246;2023-04-01T01:02:56;9.80;99.90
23156;DHT22;11746;50.876;4.246;2023-04-01T01:09:37;9.80;99.90
23156;DHT22;11746;50.876;4.246;2023-04-01T01:11:40;9.80;99.90
23156;DHT22;11746;50.876;4.246;2023-04-01T01:20:12;9.80;99.90
23156;DHT22;11746;50.876;4.246;2023-04-01T01:36:21;9.60;99.90
23156;DHT22;11746;50.876;4.246;2023-04-01T01:38:48;9.70;99.90
23156;DHT22;11746;50.876;4.246;2023-04-01T01:41:16;9.60;99.90
23156;DHT22;11746;50.876;4.246;2023-04-01T01:43:46;9.60;99.90
23156;DHT22;11746;50.876;4.246;2023-04-01T01:46:16;9.60;99.90
23156;DHT22;11746;50.876;4.246;2023-04-01T01:48:46;9.60;99.90
23156;DHT22;11746;50.876;4.246;2023-04-01T01:51:12;9.60;99.90
23156;DHT22;11746;50.876;4.246;2023-04-01T01:53:38;9.60;99.90
23156;DHT22;11746;50.876;4.246;2023-04-01T01:56:04;9.50;99.90
23156;DHT22;11746;50.876;4.246;2023-04-01T01:58:33;9.50;99.90
23156;DHT22;11746;50.876;4.246;2023-04-01T02:01:09;9.50;99.90
23156;DHT22;11746;50.876;4.246;2023-04-01T02:03:37;9.50;99.90
23156;DHT22;11746;50.876;4.246;2023-04-01T02:06:08;9.50;99.90
23156;DHT22;11746;50.876;4.246;2023-04-01T02:08:54;9.40;99.90
23156;DHT22;11746;50.876;4.246;2023-04-01T02:12:15;9.40;99.90
23156;DHT22;11746;50.876;4.246;2023-04-01T02:14:24;9.40;99.90
23156;DHT22;11746;50.876;4.246;2023-04-01T02:19:29;9.40;99.90
23156;DHT22;11746;50.876;4.246;2023-04-01T02:22:02;9.40;99.90
23156;DHT22;11746;50.876;4.246;2023-04-01T02:24:31;9.40;99.90
23156;DHT22;11746;50.876;4.246;2023-04-01T02:26:57;9.40;99.90
23156;DHT22;11746;50.876;4.246;2023-04-01T02:29:24;9.30;99.90
23156;DHT22;11746;50.876;4.246;2023-04-01T02:31:53;9.30;99.90
23156;DHT22;11746;50.876;4.246;2023-04-01T02:34:22;9.30;99.90
23156;DHT22;11746;50.876;4.246;2023-04-01T02:36:49;9.20;99.90
23156;DHT22;11746;50.876;4.246;2023-04-01T02:39:15;9.30;99.90
23156;DHT22;11746;50.876;4.246;2023-04-01T02:41:47;9.30;99.90
23156;DHT22;11746;50.876;4.246;2023-04-01T02:44:14;9.30;99.90
23156;DHT22;11746;50.876;4.246;2023-04-01T02:46:40;9.30;99.90
23156;DHT22;11746;50.876;4.246;2023-04-01T02:49:06;9.30;99.90
23156;DHT22;11746;50.876;4.246;2023-04-01T02:51:33;9.30;99.90
23156;DHT22;11746;50.876;4.246;2023-04-01T02:53:59;9.30;99.90
23156;DHT22;11746;50.876;4.246;2023-04-01T02:56:24;9.30;99.90
23156;DHT22;11746;50.876;4.246;2023-04-01T02:58:51;9.30;99.90
23156;DHT22;11746;50.876;4.246;2023-04-01T03:01:17;9.30;99.90
23156;DHT22;11746;50.876;4.246;2023-04-01T03:03:42;9.30;99.90
23156;DHT22;11746;50.876;4.246;2023-04-01T03:06:11;9.30;99.90
23156;DHT22;11746;50.876;4.246;2023-04-01T03:08:39;9.30;99.90
23156;DHT22;11746;50.876;4.246;2023-04-01T03:11:08;9.30;99.90
23156;DHT22;11746;50.876;4.246;2023-04-01T03:13:34;9.30;99.90
23156;DHT22;11746;50.876;4.246;2023-04-01T03:16:00;9.30;99.90
23156;DHT22;11746;50.876;4.246;2023-04-01T03:18:25;9.30;99.90
23156;DHT22;11746;50.876;4.246;2023-04-01T03:20:53;9.30;99.90
23156;DHT22;11746;50.876;4.246;2023-04-01T03:23:19;9.20;99.90
23156;DHT22;11746;50.876;4.246;2023-04-01T03:25:48;9.30;99.90
23156;DHT22;11746;50.876;4.246;2023-04-01T03:28:16;9.30;99.90
23156;DHT22;11746;50.876;4.246;2023-04-01T03:30:44;9.30;99.90
23156;DHT22;11746;50.876;4.246;2023-04-01T03:33:10;9.30;99.90
23156;DHT22;11746;50.876;4.246;2023-04-01T03:35:35;9.30;99.90
23156;DHT22;11746;50.876;4.246;2023-04-01T03:38:02;9.30;99.90
23156;DHT22;11746;50.876;4.246;2023-04-01T03:40:27;9.30;99.90
23156;DHT22;11746;50.876;4.246;2023-04-01T03:42:53;9.30;99.90
23156;DHT22;11746;50.876;4.246;2023-04-01T03:45:21;9.40;99.90
23156;DHT22;11746;50.876;4.246;2023-04-01T03:47:47;9.40;99.90
23156;DHT22;11746;50.876;4.246;2023-04-01T03:50:12;9.40;99.90
23156;DHT22;11746;50.876;4.246;2023-04-01T03:52:38;9.40;99.90
23156;DHT22;11746;50.876;4.246;2023-04-01T03:55:04;9.30;99.90
23156;DHT22;11746;50.876;4.246;2023-04-01T03:57:33;9.30;99.90
23156;DHT22;11746;50.876;4.246;2023-04-01T03:59:59;9.30;99.90
23156;DHT22;11746;50.876;4.246;2023-04-01T04:02:25;9.30;99.90
23156;DHT22;11746;50.876;4.246;2023-04-01T04:04:52;9.30;99.90
23156;DHT22;11746;50.876;4.246;2023-04-01T04:07:20;9.30;99.90
23156;DHT22;11746;50.876;4.246;2023-04-01T04:09:46;9.30;99.90
23156;DHT22;11746;50.876;4.246;2023-04-01T04:12:13;9.30;99.90
23156;DHT22;11746;50.876;4.246;2023-04-01T04:14:38;9.30;99.90
23156;DHT22;11746;50.876;4.246;2023-04-01T04:17:09;9.20;99.90
23156;DHT22;11746;50.876;4.246;2023-04-01T04:19:39;9.20;99.90
23156;DHT22;11746;50.876;4.246;2023-04-01T04:22:04;9.20;99.90
23156;DHT22;11746;50.876;4.246;2023-04-01T04:24:30;9.20;99.90
23156;DHT22;11746;50.876;4.246;2023-04-01T04:26:56;9.20;99.90
23156;DHT22;11746;50.876;4.246;2023-04-01T04:29:23;9.20;99.90
23156;DHT22;11746;50.876;4.246;2023-04-01T04:31:49;9.20;99.90
23156;DHT22;11746;50.876;4.246;2023-04-01T04:34:15;9.10;99.90
23156;DHT22;11746;50.876;4.246;2023-04-01T04:36:45;9.10;99.90
23156;DHT22;11746;50.876;4.246;2023-04-01T04:39:11;9.10;99.90
23156;DHT22;11746;50.876;4.246;2023-04-01T04:41:39;9.20;99.90
23156;DHT22;11746;50.876;4.246;2023-04-01T04:44:08;9.20;99.90
23156;DHT22;11746;50.876;4.246;2023-04-01T04:46:33;9.10;99.90
23156;DHT22;11746;50.876;4.246;2023-04-01T04:48:59;9.10;99.90
23156;DHT22;11746;50.876;4.246;2023-04-01T04:51:25;9.10;99.90
23156;DHT22;11746;50.876;4.246;2023-04-01T04:53:53;9.10;99.90
23156;DHT22;11746;50.876;4.246;2023-04-01T04:56:24;9.10;99.90
23156;DHT22;11746;50.876;4.246;2023-04-01T04:58:51;9.10;99.90
23156;DHT22;11746;50.876;4.246;2023-04-01T05:01:22;9.10;99.90
23156;DHT22;11746;50.876;4.246;2023-04-01T05:03:50;9.10;99.90
23156;DHT22;11746;50.876;4.246;2023-04-01T05:06:20;9.10;99.90
23156;DHT22;11746;50.876;4.246;2023-04-01T05:08:46;9.10;99.90
23156;DHT22;11746;50.876;4.246;2023-04-01T05:11:19;9.10;99.90
23156;DHT22;11746;50.876;4.246;2023-04-01T05:13:46;9.10;99.90
23156;DHT22;11746;50.876;4.246;2023-04-01T05:16:15;9.00;99.90
23156;DHT22;11746;50.876;4.246;2023-04-01T05:18:46;9.10;99.90
23156;DHT22;11746;50.876;4.246;2023-04-01T05:21:14;9.10;99.90
23156;DHT22;11746;50.876;4.246;2023-04-01T05:23:40;9.00;99.90
23156;DHT22;11746;50.876;4.246;2023-04-01T05:26:12;9.10;99.90
23156;DHT22;11746;50.876;4.246;2023-04-01T05:28:40;9.00;99.90
23156;DHT22;11746;50.876;4.246;2023-04-01T05:31:07;9.00;99.90
23156;DHT22;11746;50.876;4.246;2023-04-01T05:33:35;9.00;99.90
23156;DHT22;11746;50.876;4.246;2023-04-01T05:36:12;9.00;99.90
23156;DHT22;11746;50.876;4.246;2023-04-01T05:38:38;9.00;99.90
23156;DHT22;11746;50.876;4.246;2023-04-01T05:41:04;9.00;99.90
23156;DHT22;11746;50.876;4.246;2023-04-01T05:43:30;9.00;99.90
23156;DHT22;11746;50.876;4.246;2023-04-01T05:45:56;9.10;99.90
23156;DHT22;11746;50.876;4.246;2023-04-01T05:48:22;9.00;99.90
23156;DHT22;11746;50.876;4.246;2023-04-01T05:50:50;9.10;99.90
23156;DHT22;11746;50.876;4.246;2023-04-01T05:53:18;9.00;99.90
23156;DHT22;11746;50.876;4.246;2023-04-01T05:55:44;9.00;99.90
23156;DHT22;11746;50.876;4.246;2023-04-01T05:58:10;9.10;99.90
23156;DHT22;11746;50.876;4.246;2023-04-01T06:00:36;9.10;99.90
23156;DHT22;11746;50.876;4.246;2023-04-01T06:03:02;9.10;99.90
23156;DHT22;11746;50.876;4.246;2023-04-01T06:05:30;9.10;99.90
23156;DHT22;11746;50.876;4.246;2023-04-01T06:07:59;9.00;99.90
23156;DHT22;11746;50.876;4.246;2023-04-01T06:21:42;9.00;99.90
23156;DHT22;11746;50.876;4.246;2023-04-01T06:30:11;9.00;99.90
23156;DHT22;11746;50.876;4.246;2023-04-01T06:33:02;9.00;99.90
23156;DHT22;11746;50.876;4.246;2023-04-01T06:41:48;9.00;99.90
23156;DHT22;11746;50.876;4.246;2023-04-01T06:44:54;9.00;99.90
23156;DHT22;11746;50.876;4.246;2023-04-01T06:47:25;9.00;99.90
23156;DHT22;11746;50.876;4.246;2023-04-01T06:55:47;9.10;99.90
23156;DHT22;11746;50.876;4.246;2023-04-01T07:00:50;9.10;99.90
23156;DHT22;11746;50.876;4.246;2023-04-01T07:03:34;9.10;99.90
23156;DHT22;11746;50.876;4.246;2023-04-01T07:06:06;9.10;99.90
23156;DHT22;11746;50.876;4.246;2023-04-01T07:08:38;9.10;99.90
23156;DHT22;11746;50.876;4.246;2023-04-01T07:11:09;9.10;99.90
23156;DHT22;11746;50.876;4.246;2023-04-01T07:18:50;9.10;99.90
23156;DHT22;11746;50.876;4.246;2023-04-01T07:21:34;9.10;99.90
23156;DHT22;11746;50.876;4.246;2023-04-01T07:24:06;9.10;99.90
23156;DHT22;11746;50.876;4.246;2023-04-01T07:26:34;9.10;99.90
23156;DHT22;11746;50.876;4.246;2023-04-01T07:29:00;9.10;99.90
23156;DHT22;11746;50.876;4.246;2023-04-01T07:34:27;9.10;99.90
23156;DHT22;11746;50.876;4.246;2023-04-01T07:45:01;9.10;99.90
23156;DHT22;11746;50.876;4.246;2023-04-01T07:50:27;9.10;99.90
23156;DHT22;11746;50.876;4.246;2023-04-01T07:53:14;9.10;99.90
23156;DHT22;11746;50.876;4.246;2023-04-01T07:56:00;9.00;99.90
23156;DHT22;11746;50.876;4.246;2023-04-01T08:06:13;9.10;99.90
23156;DHT22;11746;50.876;4.246;2023-04-01T08:09:15;9.10;99.90
23156;DHT22;11746;50.876;4.246;2023-04-01T08:23:16;9.20;99.90
23156;DHT22;11746;50.876;4.246;2023-04-01T08:30:53;9.20;99.90
23156;DHT22;11746;50.876;4.246;2023-04-01T08:33:29;9.20;99.90
23156;DHT22;11746;50.876;4.246;2023-04-01T08:36:15;9.30;99.90
23156;DHT22;11746;50.876;4.246;2023-04-01T08:44:24;9.30;99.90
23156;DHT22;11746;50.876;4.246;2023-04-01T08:49:54;9.30;99.90
23156;DHT22;11746;50.876;4.246;2023-04-01T08:52:36;9.20;99.90
23156;DHT22;11746;50.876;4.246;2023-04-01T09:07:14;9.20;99.90
23156;DHT22;11746;50.876;4.246;2023-04-01T09:18:20;9.40;99.90
23156;DHT22;11746;50.876;4.246;2023-04-01T09:46:43;9.60;99.90
23156;DHT22;11746;50.876;4.246;2023-04-01T10:00:15;9.60;99.90
23156;DHT22;11746;50.876;4.246;2023-04-01T10:28:52;9.70;99.90
23156;DHT22;11746;50.876;4.246;2023-04-01T10:54:18;10.00;99.90
23156;DHT22;11746;50.876;4.246;2023-04-01T10:59:28;9.90;99.90
23156;DHT22;11746;50.876;4.246;2023-04-01T11:02:14;9.90;99.90
23156;DHT22;11746;50.876;4.246;2023-04-01T12:14:20;9.90;99.90
23156;DHT22;11746;50.876;4.246;2023-04-01T12:19:51;9.90;99.90
23156;DHT22;11746;50.876;4.246;2023-04-01T12:22:31;9.70;99.90
23156;DHT22;11746;50.876;4.246;2023-04-01T12:27:46;9.50;99.90
23156;DHT22;11746;50.876;4.246;2023-04-01T12:50:28;9.50;99.90
23156;DHT22;11746;50.876;4.246;2023-04-01T12:55:50;9.50;99.90
23156;DHT22;11746;50.876;4.246;2023-04-01T13:03:56;9.60;99.90
23156;DHT22;11746;50.876;4.246;2023-04-01T13:09:16;9.60;99.90
23156;DHT22;11746;50.876;4.246;2023-04-01T13:17:25;9.50;99.90
23156;DHT22;11746;50.876;4.246;2023-04-01T13:27:41;9.60;99.90
23156;DHT22;11746;50.876;4.246;2023-04-01T13:38:48;9.50;99.90
23156;DHT22;11746;50.876;4.246;2023-04-01T13:56:07;9.60;99.90
23156;DHT22;11746;50.876;4.246;2023-04-01T14:01:48;9.60;99.90
23156;DHT22;11746;50.876;4.246;2023-04-01T14:04:30;9.60;99.90
23156;DHT22;11746;50.876;4.246;2023-04-01T14:08:15;9.50;99.90
23156;DHT22;11746;50.876;4.246;2023-04-01T14:10:43;9.60;99.90
23156;DHT22;11746;50.876;4.246;2023-04-01T14:13:43;9.60;99.90
23156;DHT22;11746;50.876;4.246;2023-04-01T14:16:14;9.50;99.90
23156;DHT22;11746;50.876;4.246;2023-04-01T14:30:29;9.50;99.90
23156;DHT22;11746;50.876;4.246;2023-04-01T14:34:22;9.50;99.90
23156;DHT22;11746;50.876;4.246;2023-04-01T14:41:59;9.60;99.90
23156;DHT22;11746;50.876;4.246;2023-04-01T14:49:52;9.60;99.90
23156;DHT22;11746;50.876;4.246;2023-04-01T14:52:31;9.50;99.90
23156;DHT22;11746;50.876;4.246;2023-04-01T14:54:58;9.50;99.90
23156;DHT22;11746;50.876;4.246;2023-04-01T14:57:27;9.50;99.90
23156;DHT22;11746;50.876;4.246;2023-04-01T14:59:56;9.40;99.90
23156;DHT22;11746;50.876;4.246;2023-04-01T15:30:45;9.50;99.90
23156;DHT22;11746;50.876;4.246;2023-04-01T15:33:38;9.40;99.90
23156;DHT22;11746;50.876;4.246;2023-04-01T15:47:34;9.30;99.90
23156;DHT22;11746;50.876;4.246;2023-04-01T15:53:07;9.10;99.90
23156;DHT22;11746;50.876;4.246;2023-04-01T15:55:42;9.20;99.90
23156;DHT22;11746;50.876;4.246;2023-04-01T16:03:47;9.30;99.90
23156;DHT22;11746;50.876;4.246;2023-04-01T16:12:13;9.30;99.90
23156;DHT22;11746;50.876;4.246;2023-04-01T16:20:01;9.20;99.90
23156;DHT22;11746;50.876;4.246;2023-04-01T16:22:33;9.20;99.90
23156;DHT22;11746;50.876;4.246;2023-04-01T16:41:38;9.10;99.90
23156;DHT22;11746;50.876;4.246;2023-04-01T16:46:46;9.10;99.90
23156;DHT22;11746;50.876;4.246;2023-04-01T16:54:41;9.20;99.90
23156;DHT22;11746;50.876;4.246;2023-04-01T16:57:27;9.10;99.90
23156;DHT22;11746;50.876;4.246;2023-04-01T17:02:31;9.10;99.90
23156;DHT22;11746;50.876;4.246;2023-04-01T17:05:09;9.20;99.90
23156;DHT22;11746;50.876;4.246;2023-04-01T17:08:01;9.20;99.90
23156;DHT22;11746;50.876;4.246;2023-04-01T17:18:49;9.10;99.90
23156;DHT22;11746;50.876;4.246;2023-04-01T17:33:02;9.10;99.90
23156;DHT22;11746;50.876;4.246;2023-04-01T17:35:39;9.10;99.90
23156;DHT22;11746;50.876;4.246;2023-04-01T17:38:24;9.10;99.90
23156;DHT22;11746;50.876;4.246;2023-04-01T17:41:03;9.10;99.90
23156;DHT22;11746;50.876;4.246;2023-04-01T17:46:44;9.10;99.90
23156;DHT22;11746;50.876;4.246;2023-04-01T17:49:26;9.10;99.90
23156;DHT22;11746;50.876;4.246;2023-04-01T17:58:06;9.00;99.90
23156;DHT22;11746;50.876;4.246;2023-04-01T18:22:53;8.90;99.90
23156;DHT22;11746;50.876;4.246;2023-04-01T18:25:37;9.00;99.90
23156;DHT22;11746;50.876;4.246;2023-04-01T18:30:53;9.00;99.90
23156;DHT22;11746;50.876;4.246;2023-04-01T18:33:34;9.00;99.90
23156;DHT22;11746;50.876;4.246;2023-04-01T18:39:04;8.90;99.90
23156;DHT22;11746;50.876;4.246;2023-04-01T18:44:50;8.90;99.90
23156;DHT22;11746;50.876;4.246;2023-04-01T18:52:54;8.90;99.90
23156;DHT22;11746;50.876;4.246;2023-04-01T19:03:37;8.90;99.90
23156;DHT22;11746;50.876;4.246;2023-04-01T19:06:21;8.80;99.90
23156;DHT22;11746;50.876;4.246;2023-04-01T19:08:51;8.80;99.90
23156;DHT22;11746;50.876;4.246;2023-04-01T19:14:19;8.70;99.90
23156;DHT22;11746;50.876;4.246;2023-04-01T19:20:26;8.80;99.90
23156;DHT22;11746;50.876;4.246;2023-04-01T19:25:29;8.70;99.90
23156;DHT22;11746;50.876;4.246;2023-04-01T19:28:15;8.80;99.90
23156;DHT22;11746;50.876;4.246;2023-04-01T19:30:53;8.70;99.90
23156;DHT22;11746;50.876;4.246;2023-04-01T19:34:12;8.70;99.90
23156;DHT22;11746;50.876;4.246;2023-04-01T19:50:54;8.60;99.90
23156;DHT22;11746;50.876;4.246;2023-04-01T19:53:48;8.60;99.90
23156;DHT22;11746;50.876;4.246;2023-04-01T19:56:21;8.60;99.90
23156;DHT22;11746;50.876;4.246;2023-04-01T19:58:54;8.60;99.90
23156;DHT22;11746;50.876;4.246;2023-04-01T20:01:45;8.70;99.90
23156;DHT22;11746;50.876;4.246;2023-04-01T20:04:22;8.60;99.90
23156;DHT22;11746;50.876;4.246;2023-04-01T20:09:48;8.60;99.90
23156;DHT22;11746;50.876;4.246;2023-04-01T20:15:33;8.60;99.90
23156;DHT22;11746;50.876;4.246;2023-04-01T20:18:05;8.70;99.90
23156;DHT22;11746;50.876;4.246;2023-04-01T20:20:36;8.70;99.90
23156;DHT22;11746;50.876;4.246;2023-04-01T20:26:09;8.70;99.90
23156;DHT22;11746;50.876;4.246;2023-04-01T20:31:41;8.60;99.90
23156;DHT22;11746;50.876;4.246;2023-04-01T20:35:20;8.70;99.90
23156;DHT22;11746;50.876;4.246;2023-04-01T20:40:19;8.70;99.90
23156;DHT22;11746;50.876;4.246;2023-04-01T20:57:14;8.80;99.90
23156;DHT22;11746;50.876;4.246;2023-04-01T20:59:48;8.80;99.90
23156;DHT22;11746;50.876;4.246;2023-04-01T21:02:20;8.80;99.90
23156;DHT22;11746;50.876;4.246;2023-04-01T21:07:46;8.80;99.90
23156;DHT22;11746;50.876;4.246;2023-04-01T21:22:18;8.80;99.90
23156;DHT22;11746;50.876;4.246;2023-04-01T21:32:41;8.90;99.90
23156;DHT22;11746;50.876;4.246;2023-04-01T21:36:01;8.80;99.90
23156;DHT22;11746;50.876;4.246;2023-04-01T21:46:58;8.90;99.90
23156;DHT22;11746;50.876;4.246;2023-04-01T21:52:51;9.00;99.90
23156;DHT22;11746;50.876;4.246;2023-04-01T22:01:14;9.00;99.90
23156;DHT22;11746;50.876;4.246;2023-04-01T22:16:47;9.20;99.90
23156;DHT22;11746;50.876;4.246;2023-04-01T22:19:20;9.20;99.90
23156;DHT22;11746;50.876;4.246;2023-04-01T22:30:23;9.30;99.90
23156;DHT22;11746;50.876;4.246;2023-04-01T22:32:52;9.30;99.90
23156;DHT22;11746;50.876;4.246;2023-04-01T22:40:42;9.30;99.90
23156;DHT22;11746;50.876;4.246;2023-04-01T22:43:34;9.40;99.90
23156;DHT22;11746;50.876;4.246;2023-04-01T22:49:24;9.30;99.90
23156;DHT22;11746;50.876;4.246;2023-04-01T22:57:08;9.30;99.90
23156;DHT22;11746;50.876;4.246;2023-04-01T22:59:52;9.20;99.90
23156;DHT22;11746;50.876;4.246;2023-04-01T23:02:33;9.10;99.90
23156;DHT22;11746;50.876;4.246;2023-04-01T23:05:04;9.20;99.90
23156;DHT22;11746;50.876;4.246;2023-04-01T23:10:25;9.20;99.90
23156;DHT22;11746;50.876;4.246;2023-04-01T23:12:58;9.30;99.90
23156;DHT22;11746;50.876;4.246;2023-04-01T23:15:26;9.30;99.90
23156;DHT22;11746;50.876;4.246;2023-04-01T23:20:54;9.30;99.90
23156;DHT22;11746;50.876;4.246;2023-04-01T23:24:00;9.20;99.90
23156;DHT22;11746;50.876;4.246;2023-04-01T23:29:23;9.10;99.90
23156;DHT22;11746;50.876;4.246;2023-04-01T23:32:01;9.20;99.90
23156;DHT22;11746;50.876;4.246;2023-04-01T23:34:34;9.30;99.90
23156;DHT22;11746;50.876;4.246;2023-04-01T23:37:13;9.20;99.90
23156;DHT22;11746;50.876;4.246;2023-04-01T23:39:56;9.20;99.90
23156;DHT22;11746;50.876;4.246;2023-04-01T23:42:32;9.20;99.90
23156;DHT22;11746;50.876;4.246;2023-04-01T23:45:05;9.20;99.90
23156;DHT22;11746;50.876;4.246;2023-04-01T23:47:39;9.20;99.90
23156;DHT22;11746;50.876;4.246;2023-04-01T23:50:26;9.10;99.90
23156;DHT22;11746;50.876;4.246;2023-04-01T23:52:59;9.00;99.90
23156;DHT22;11746;50.876;4.246;2023-04-01T23:55:33;9.10;99.90
